createdAt,value
2017-12-13T00:01:00.179Z,99690.59
2017-12-13T00:03:27.668Z,99693.52
2017-12-13T00:05:55.131Z,99698.98
2017-12-13T00:08:22.733Z,99704.91
2017-12-13T00:10:50.196Z,99696.03
2017-12-13T00:13:17.681Z,99690.09
2017-12-13T00:15:45.183Z,99693.51
2017-12-13T00:18:12.636Z,99690.95
2017-12-13T00:20:40.080Z,99692.61
2017-12-13T00:23:07.548Z,99699.33
2017-12-13T00:25:35.009Z,99705.66
2017-12-13T00:28:02.521Z,99692.23
2017-12-13T00:30:30.005Z,99685.95
2017-12-13T00:32:57.447Z,99683.32
2017-12-13T00:35:24.892Z,99690.07
2017-12-13T00:37:52.348Z,99696.80
2017-12-13T00:40:19.815Z,99688.51
2017-12-13T00:42:47.272Z,99694.76
2017-12-13T00:45:15.059Z,99699.86
2017-12-13T00:47:42.471Z,99700.23
2017-12-13T00:50:09.951Z,99713.75
2017-12-13T00:52:37.435Z,99705.49
2017-12-13T00:55:04.882Z,99702.02
2017-12-13T00:57:32.343Z,99696.97
2017-12-13T00:59:59.800Z,99705.45
2017-12-13T01:02:27.258Z,99698.17
2017-12-13T01:04:54.716Z,99696.52
2017-12-13T01:07:22.200Z,99705.77
2017-12-13T01:09:49.659Z,99707.53
2017-12-13T01:12:17.095Z,99711.34
2017-12-13T01:14:44.611Z,99711.42
2017-12-13T01:17:12.077Z,99716.52
2017-12-13T01:19:40.780Z,99715.20
2017-12-13T01:22:08.230Z,99711.84
2017-12-13T01:24:35.679Z,99711.45
2017-12-13T01:27:03.117Z,99710.96
2017-12-13T01:29:30.639Z,99715.99
2017-12-13T01:31:58.130Z,99713.00
2017-12-13T01:34:25.590Z,99718.47
2017-12-13T01:36:53.047Z,99706.67
2017-12-13T01:39:20.502Z,99698.21
2017-12-13T01:41:47.966Z,99699.53
2017-12-13T01:44:15.437Z,99690.28
2017-12-13T01:46:42.905Z,99684.33
2017-12-13T01:49:10.392Z,99691.98
2017-12-13T01:51:37.854Z,99709.25
2017-12-13T01:54:05.307Z,99709.25
2017-12-13T01:56:32.819Z,99718.50
2017-12-13T01:59:00.270Z,99719.73
2017-12-13T02:01:27.726Z,99719.27
2017-12-13T02:03:55.183Z,99723.59
2017-12-13T02:06:22.678Z,99721.42
2017-12-13T02:08:50.163Z,99709.50
2017-12-13T02:11:17.619Z,99704.47
2017-12-13T02:13:45.071Z,99689.62
2017-12-13T02:16:12.573Z,99696.34
2017-12-13T02:18:40.021Z,99689.59
2017-12-13T02:21:07.484Z,99681.16
2017-12-13T02:23:34.937Z,99677.77
2017-12-13T02:26:02.383Z,99698.92
2017-12-13T02:28:29.855Z,99707.30
2017-12-13T02:30:57.304Z,99713.16
2017-12-13T02:33:25.368Z,99709.27
2017-12-13T02:35:52.830Z,99705.06
2017-12-13T02:38:20.274Z,99710.08
2017-12-13T02:40:59.264Z,99725.34
2017-12-13T02:43:26.717Z,99727.09
2017-12-13T02:45:54.170Z,99719.04
2017-12-13T02:48:21.652Z,99726.38
2017-12-13T02:50:49.097Z,99721.22
2017-12-13T02:53:16.531Z,99719.87
2017-12-13T02:55:46.833Z,99721.58
2017-12-13T02:58:14.314Z,99716.84
2017-12-13T03:00:41.767Z,99713.05
2017-12-13T03:03:09.222Z,99707.52
2017-12-13T03:05:36.666Z,99715.94
2017-12-13T03:08:04.138Z,99722.63
2017-12-13T03:10:31.610Z,99726.01
2017-12-13T03:12:59.074Z,99719.70
2017-12-13T03:15:26.517Z,99731.52
2017-12-13T03:17:53.980Z,99731.12
2017-12-13T03:20:21.427Z,99732.75
2017-12-13T03:22:48.893Z,99735.41
2017-12-13T03:25:16.411Z,99736.57
2017-12-13T03:27:43.883Z,99743.00
2017-12-13T03:30:11.337Z,99740.76
2017-12-13T03:32:39.748Z,99742.01
2017-12-13T03:35:07.241Z,99743.84
2017-12-13T03:37:34.710Z,99740.07
2017-12-13T03:40:02.163Z,99728.59
2017-12-13T03:42:29.623Z,99734.46
2017-12-13T03:44:57.088Z,99723.52
2017-12-13T03:47:24.544Z,99735.28
2017-12-13T03:49:52.005Z,99747.17
2017-12-13T03:52:19.483Z,99734.16
2017-12-13T03:54:47.203Z,99726.50
2017-12-13T03:57:14.772Z,99723.98
2017-12-13T03:59:42.255Z,99737.09
2017-12-13T04:02:09.720Z,99724.79
2017-12-13T04:04:37.241Z,99737.89
2017-12-13T04:07:04.691Z,99727.33
2017-12-13T04:09:32.143Z,99723.88
2017-12-13T04:11:59.804Z,99727.77
2017-12-13T04:14:27.371Z,99732.38
2017-12-13T04:16:54.811Z,99738.30
2017-12-13T04:19:22.257Z,99731.09
2017-12-13T04:21:49.707Z,99734.89
2017-12-13T04:24:17.148Z,99730.73
2017-12-13T04:26:44.603Z,99745.96
2017-12-13T04:29:12.093Z,99756.42
2017-12-13T04:31:39.539Z,99759.89
2017-12-13T04:34:07.019Z,99754.33
2017-12-13T04:36:34.467Z,99763.66
2017-12-13T04:39:01.925Z,99774.23
2017-12-13T04:41:29.399Z,99756.91
2017-12-13T04:43:56.922Z,99761.11
2017-12-13T04:46:24.372Z,99753.98
2017-12-13T04:48:51.830Z,99761.69
2017-12-13T04:51:19.280Z,99771.30
2017-12-13T04:53:46.719Z,99786.90
2017-12-13T04:56:14.172Z,99773.82
2017-12-13T04:58:41.620Z,99770.89
2017-12-13T05:01:09.072Z,99778.89
2017-12-13T05:03:36.510Z,99792.40
2017-12-13T05:06:03.975Z,99785.62
2017-12-13T05:08:31.431Z,99790.20
2017-12-13T05:10:58.908Z,99794.87
2017-12-13T05:13:26.375Z,99788.11
2017-12-13T05:15:53.817Z,99793.06
2017-12-13T05:18:21.299Z,99795.16
2017-12-13T05:20:48.782Z,99805.42
2017-12-13T05:23:16.235Z,99802.82
2017-12-13T05:25:43.694Z,99805.91
2017-12-13T05:28:11.136Z,99805.84
2017-12-13T05:30:38.753Z,99801.25
2017-12-13T05:33:06.213Z,99800.34
2017-12-13T05:35:33.664Z,99807.09
2017-12-13T05:38:01.183Z,99808.70
2017-12-13T05:40:28.659Z,99812.98
2017-12-13T05:42:56.130Z,99813.05
2017-12-13T05:45:23.593Z,99810.44
2017-12-13T05:47:51.052Z,99821.84
2017-12-13T05:50:18.511Z,99818.84
2017-12-13T05:52:46.013Z,99824.36
2017-12-13T05:55:13.458Z,99824.69
2017-12-13T05:57:40.978Z,99831.97
2017-12-13T06:00:08.444Z,99830.57
2017-12-13T06:02:35.904Z,99829.69
2017-12-13T06:05:03.365Z,99834.02
2017-12-13T06:07:30.831Z,99837.36
2017-12-13T06:09:58.328Z,99846.94
2017-12-13T06:12:26.039Z,99845.80
2017-12-13T06:14:53.503Z,99841.61
2017-12-13T06:17:20.959Z,99844.50
2017-12-13T06:19:48.423Z,99855.91
2017-12-13T06:22:15.948Z,99853.33
2017-12-13T06:24:43.383Z,99864.05
2017-12-13T06:27:10.902Z,99862.23
2017-12-13T06:29:38.352Z,99868.64
2017-12-13T06:32:05.820Z,99870.97
2017-12-13T06:34:33.397Z,99877.33
2017-12-13T06:37:01.513Z,99869.33
2017-12-13T06:39:29.004Z,99868.48
2017-12-13T06:41:56.456Z,99865.61
2017-12-13T06:44:23.985Z,99874.61
2017-12-13T06:46:51.423Z,99869.28
2017-12-13T06:49:18.943Z,99873.19
2017-12-13T06:51:46.395Z,99876.88
2017-12-13T06:54:13.964Z,99880.63
2017-12-13T06:56:41.451Z,99879.06
2017-12-13T06:59:08.911Z,99879.12
2017-12-13T07:01:37.044Z,99879.93
2017-12-13T07:04:05.080Z,99881.11
2017-12-13T07:06:36.850Z,99894.22
2017-12-13T07:09:06.250Z,99884.88
2017-12-13T07:11:35.058Z,99890.85
2017-12-13T07:14:02.661Z,99888.82
2017-12-13T07:16:31.688Z,99894.37
2017-12-13T07:19:01.299Z,99884.66
2017-12-13T07:21:29.721Z,99885.63
2017-12-13T07:24:01.388Z,99886.08
2017-12-13T07:26:28.868Z,99895.27
2017-12-13T07:28:57.524Z,99908.70
2017-12-13T07:34:01.340Z,99904.08
2017-12-13T07:36:28.920Z,99907.51
2017-12-13T07:38:59.047Z,99906.69
2017-12-13T07:41:27.924Z,99909.63
2017-12-13T07:43:58.988Z,99905.48
2017-12-13T07:46:32.374Z,99899.61
2017-12-13T07:49:00.442Z,99904.66
2017-12-13T07:51:28.522Z,99895.83
2017-12-13T07:53:58.563Z,99900.09
2017-12-13T07:56:26.586Z,99893.13
2017-12-13T07:58:54.041Z,99892.66
2017-12-13T08:01:25.568Z,99895.32
2017-12-13T08:03:53.079Z,99888.92
2017-12-13T08:06:25.791Z,99890.38
2017-12-13T08:08:54.393Z,99884.39
2017-12-13T08:11:27.776Z,99885.95
2017-12-13T08:13:58.504Z,99885.05
2017-12-13T08:16:28.231Z,99876.56
2017-12-13T08:19:02.889Z,99868.58
2017-12-13T08:21:30.935Z,99876.59
2017-12-13T08:24:02.819Z,99875.41
2017-12-13T08:26:34.479Z,99877.24
2017-12-13T08:29:01.951Z,99870.13
2017-12-13T08:31:32.079Z,99865.84
2017-12-13T08:34:02.260Z,99855.36
2017-12-13T08:52:39.766Z,99874.89
2017-12-13T08:55:08.694Z,99870.67
2017-12-13T08:57:36.196Z,99867.59
2017-12-13T09:00:04.944Z,99876.02
2017-12-13T09:02:33.651Z,99881.48
2017-12-13T09:05:01.123Z,99881.78
2017-12-13T09:07:31.285Z,99881.27
2017-12-13T09:09:58.984Z,99876.60
2017-12-13T09:12:26.671Z,99881.78
2017-12-13T09:14:54.150Z,99881.09
2017-12-13T09:17:24.556Z,99879.41
2017-12-13T09:19:52.485Z,99882.45
2017-12-13T09:22:20.030Z,99870.22
2017-12-13T09:24:47.521Z,99864.65
2017-12-13T09:27:15.600Z,99858.38
2017-12-13T09:29:43.084Z,99860.80
2017-12-13T09:32:10.572Z,99858.29
2017-12-13T09:34:38.056Z,99847.82
2017-12-13T09:37:05.522Z,99851.16
2017-12-13T09:39:33.072Z,99845.34
2017-12-13T09:42:00.537Z,99853.51
2017-12-13T09:44:28.012Z,99845.97
2017-12-13T09:46:55.460Z,99846.08
2017-12-13T09:49:22.919Z,99832.05
2017-12-13T09:51:50.364Z,99830.03
2017-12-13T09:54:17.908Z,99833.94
2017-12-13T09:56:45.362Z,99836.14
2017-12-13T09:59:12.859Z,99822.20
2017-12-13T10:01:40.329Z,99821.49
2017-12-13T10:04:08.295Z,99824.36
2017-12-13T10:06:35.839Z,99819.23
2017-12-13T10:09:03.380Z,99809.02
2017-12-13T10:11:30.844Z,99805.75
2017-12-13T10:13:58.361Z,99807.05
2017-12-13T10:16:25.808Z,99794.69
2017-12-13T10:18:53.308Z,99795.59
2017-12-13T10:21:20.759Z,99803.52
2017-12-13T10:23:48.229Z,99791.24
2017-12-13T10:26:15.797Z,99782.86
2017-12-13T10:28:43.247Z,99770.59
2017-12-13T10:31:10.745Z,99766.00
2017-12-13T10:33:38.753Z,99763.38
2017-12-13T10:36:06.269Z,99767.10
2017-12-13T10:38:33.728Z,99764.95
2017-12-13T10:41:01.177Z,99767.59
2017-12-13T10:43:31.044Z,99753.20
2017-12-13T10:45:58.495Z,99751.13
2017-12-13T10:48:26.232Z,99746.53
2017-12-13T10:50:53.738Z,99745.62
2017-12-13T10:53:21.366Z,99737.63
2017-12-13T10:55:49.415Z,99740.97
2017-12-13T10:58:16.904Z,99723.16
2017-12-13T11:00:44.529Z,99730.42
2017-12-13T11:03:11.999Z,99722.31
2017-12-13T11:05:39.476Z,99715.56
2017-12-13T11:08:06.971Z,99715.12
2017-12-13T11:10:34.444Z,99702.78
2017-12-13T11:13:01.937Z,99715.48
2017-12-13T11:15:29.411Z,99706.17
2017-12-13T11:17:56.897Z,99710.31
2017-12-13T11:20:24.365Z,99713.64
2017-12-13T11:22:51.836Z,99697.65
2017-12-13T11:25:19.315Z,99693.86
2017-12-13T11:27:46.810Z,99690.92
2017-12-13T11:30:14.429Z,99683.72
2017-12-13T11:32:41.915Z,99679.90
2017-12-13T11:35:09.469Z,99668.89
2017-12-13T11:37:37.055Z,99679.97
2017-12-13T11:40:04.546Z,99673.11
2017-12-13T11:42:32.014Z,99667.58
2017-12-13T11:44:59.515Z,99665.79
2017-12-13T11:47:26.967Z,99666.73
2017-12-13T11:49:54.435Z,99659.03
2017-12-13T11:52:21.900Z,99662.50
2017-12-13T11:54:52.295Z,99658.30
2017-12-13T11:57:19.760Z,99648.18
2017-12-13T11:59:47.231Z,99645.66
2017-12-13T12:02:19.463Z,99641.89
2017-12-13T12:04:46.957Z,99644.00
2017-12-13T12:07:14.423Z,99638.45
2017-12-13T12:09:42.021Z,99634.64
2017-12-13T12:12:11.634Z,99625.33
2017-12-13T12:14:39.207Z,99612.23
2017-12-13T12:17:06.676Z,99614.76
2017-12-13T12:19:34.779Z,99606.70
2017-12-13T12:22:02.248Z,99607.15
2017-12-13T12:24:29.739Z,99599.98
2017-12-13T12:26:57.208Z,99586.83
2017-12-13T12:29:24.675Z,99583.45
2017-12-13T12:31:52.151Z,99580.88
2017-12-13T12:34:19.670Z,99582.16
2017-12-13T12:36:47.525Z,99572.00
2017-12-13T12:39:16.128Z,99567.36
2017-12-13T12:41:43.689Z,99554.20
2017-12-13T12:44:11.175Z,99550.81
2017-12-13T12:46:38.652Z,99546.58
2017-12-13T12:49:06.136Z,99547.00
2017-12-13T12:51:43.743Z,99546.58
2017-12-13T12:54:11.324Z,99545.73
2017-12-13T12:56:38.810Z,99539.81
2017-12-13T12:59:06.259Z,99538.12
2017-12-13T13:01:34.352Z,99529.64
2017-12-13T13:04:01.840Z,99527.52
2017-12-13T13:06:29.325Z,99526.25
2017-12-13T13:08:56.780Z,99524.54
2017-12-13T13:11:24.225Z,99524.52
2017-12-13T13:13:51.735Z,99517.30
2017-12-13T13:16:19.181Z,99514.78
2017-12-13T13:18:48.017Z,99503.77
2017-12-13T13:21:16.168Z,99508.84
2017-12-13T13:23:43.666Z,99504.20
2017-12-13T13:26:11.132Z,99503.78
2017-12-13T13:28:39.592Z,99503.34
2017-12-13T13:31:07.060Z,99494.03
2017-12-13T13:33:34.521Z,99486.86
2017-12-13T13:36:01.986Z,99479.22
2017-12-13T13:38:29.716Z,99471.17
2017-12-13T13:40:57.208Z,99458.47
2017-12-13T13:43:24.895Z,99460.12
2017-12-13T13:45:52.688Z,99457.59
2017-12-13T13:48:20.689Z,99449.55
2017-12-13T13:50:48.148Z,99447.00
2017-12-13T13:53:15.599Z,99444.87
2017-12-13T13:55:43.098Z,99439.38
2017-12-13T13:58:10.562Z,99435.96
2017-12-13T14:00:38.173Z,99433.77
2017-12-13T14:03:05.624Z,99426.03
2017-12-13T14:05:33.131Z,99415.22
2017-12-13T14:08:06.340Z,99410.38
2017-12-13T14:10:33.818Z,99410.84
2017-12-13T14:13:01.263Z,99408.57
2017-12-13T14:15:28.813Z,99400.83
2017-12-13T14:17:56.263Z,99402.92
2017-12-13T14:20:23.721Z,99405.99
2017-12-13T14:22:51.213Z,99404.32
2017-12-13T14:25:18.680Z,99404.15
2017-12-13T14:27:46.133Z,99399.26
2017-12-13T14:30:13.656Z,99404.95
2017-12-13T14:32:41.120Z,99401.65
2017-12-13T14:35:08.597Z,99397.88
2017-12-13T14:37:36.053Z,99392.41
2017-12-13T14:40:03.515Z,99390.70
2017-12-13T14:42:30.974Z,99383.92
2017-12-13T14:44:58.504Z,99381.32
2017-12-13T14:47:25.985Z,99373.27
2017-12-13T14:49:53.490Z,99369.40
2017-12-13T14:52:20.996Z,99367.29
2017-12-13T14:54:48.468Z,99367.22
2017-12-13T14:57:16.069Z,99368.05
2017-12-13T14:59:43.515Z,99360.41
2017-12-13T15:02:10.981Z,99348.08
2017-12-13T15:04:38.456Z,99339.60
2017-12-13T15:07:06.013Z,99331.09
2017-12-13T15:09:33.476Z,99322.55
2017-12-13T15:12:01.059Z,99317.02
2017-12-13T15:14:28.546Z,99304.69
2017-12-13T15:16:56.032Z,99300.05
2017-12-13T15:19:24.800Z,99301.21
2017-12-13T15:21:52.255Z,99298.20
2017-12-13T15:24:19.732Z,99303.72
2017-12-13T15:26:47.179Z,99287.67
2017-12-13T15:29:15.244Z,99282.52
2017-12-13T15:31:42.689Z,99278.30
2017-12-13T15:34:10.665Z,99279.88
2017-12-13T15:36:38.144Z,99276.42
2017-12-13T15:39:05.671Z,99268.75
2017-12-13T15:41:34.023Z,99265.79
2017-12-13T15:44:01.557Z,99263.73
2017-12-13T15:46:29.068Z,99252.73
2017-12-13T15:48:56.524Z,99250.97
2017-12-13T15:51:24.116Z,99247.53
2017-12-13T15:53:51.600Z,99256.26
2017-12-13T15:56:19.060Z,99240.53
2017-12-13T15:58:46.519Z,99237.02
2017-12-13T16:01:14.910Z,99236.06
2017-12-13T16:03:42.353Z,99234.03
2017-12-13T16:06:09.856Z,99233.94
2017-12-13T16:08:37.433Z,99230.51
2017-12-13T16:11:04.893Z,99225.55
2017-12-13T16:13:33.727Z,99218.00
2017-12-13T16:16:01.183Z,99211.62
2017-12-13T16:18:28.836Z,99211.64
2017-12-13T16:20:56.403Z,99218.27
2017-12-13T16:23:23.890Z,99209.80
2017-12-13T16:25:51.392Z,99206.91
2017-12-13T16:28:18.936Z,99211.08
2017-12-13T16:30:48.479Z,99197.96
2017-12-13T16:33:16.598Z,99196.73
2017-12-13T16:35:44.079Z,99201.30
2017-12-13T16:38:11.541Z,99190.35
2017-12-13T16:40:38.983Z,99187.77
2017-12-13T16:43:06.484Z,99186.53
2017-12-13T16:45:33.944Z,99186.87
2017-12-13T16:48:01.427Z,99175.88
2017-12-13T16:50:28.920Z,99178.73
2017-12-13T16:52:56.445Z,99179.60
2017-12-13T16:55:24.130Z,99166.94
2017-12-13T16:57:51.712Z,99162.74
2017-12-13T17:00:19.664Z,99148.80
2017-12-13T17:02:47.124Z,99145.98
2017-12-13T17:05:15.536Z,99144.66
2017-12-13T17:07:43.901Z,99131.20
2017-12-13T17:10:11.944Z,99132.72
2017-12-13T17:12:39.443Z,99125.16
2017-12-13T17:15:08.096Z,99131.11
2017-12-13T17:17:35.582Z,99128.12
2017-12-13T17:20:03.087Z,99122.30
2017-12-13T17:22:30.552Z,99119.69
2017-12-13T17:24:58.092Z,99111.63
2017-12-13T17:27:25.802Z,99107.34
2017-12-13T17:29:53.303Z,99098.92
2017-12-13T17:32:20.834Z,99091.36
2017-12-13T17:34:48.319Z,99089.19
2017-12-13T17:37:15.793Z,99080.73
2017-12-13T17:39:43.258Z,99081.53
2017-12-13T17:42:10.795Z,99082.55
2017-12-13T17:44:38.563Z,99071.56
2017-12-13T17:47:06.030Z,99062.36
2017-12-13T17:49:33.557Z,99053.92
2017-12-13T17:52:01.277Z,99049.70
2017-12-13T17:54:29.517Z,99046.29
2017-12-13T17:56:57.036Z,99039.97
2017-12-13T17:59:24.649Z,99030.69
2017-12-13T18:01:52.175Z,99036.98
2017-12-13T18:04:19.803Z,99042.44
2017-12-13T18:06:47.618Z,99036.63
2017-12-13T18:09:15.300Z,99032.39
2017-12-13T18:11:42.826Z,99036.94
2017-12-13T18:14:10.392Z,99039.47
2017-12-13T18:16:38.049Z,99044.48
2017-12-13T18:19:05.581Z,99036.39
2017-12-13T18:21:33.142Z,99025.34
2017-12-13T18:24:00.607Z,99015.13
2017-12-13T18:26:28.233Z,99012.59
2017-12-13T18:28:55.667Z,99010.24
2017-12-13T18:31:23.202Z,99012.92
2017-12-13T18:33:50.697Z,99006.90
2017-12-13T18:36:18.155Z,98991.70
2017-12-13T18:38:45.976Z,98985.45
2017-12-13T18:41:13.697Z,98972.09
2017-12-13T18:43:41.168Z,98967.16
2017-12-13T18:46:08.719Z,98971.00
2017-12-13T19:01:32.220Z,98940.66
2017-12-13T19:03:59.718Z,98936.91
2017-12-13T19:06:27.295Z,98931.02
2017-12-13T19:08:54.765Z,98918.44
2017-12-13T19:11:22.228Z,98909.65
2017-12-13T19:13:49.724Z,98907.09
2017-12-13T19:16:17.261Z,98908.36
2017-12-13T19:18:45.750Z,98909.22
2017-12-13T19:21:13.252Z,98902.47
2017-12-13T19:23:40.700Z,98899.97
2017-12-13T19:26:08.202Z,98896.12
2017-12-13T19:28:35.795Z,98889.41
2017-12-13T19:31:03.291Z,98881.44
2017-12-13T19:33:31.025Z,98875.16
2017-12-13T19:35:58.544Z,98867.20
2017-12-13T19:38:26.165Z,98863.41
2017-12-13T19:40:53.685Z,98867.68
2017-12-13T19:43:21.210Z,98870.60
2017-12-13T19:45:48.848Z,98863.00
2017-12-13T19:48:16.361Z,98847.83
2017-12-13T19:50:44.010Z,98840.29
2017-12-13T19:53:11.571Z,98833.95
2017-12-13T19:55:39.104Z,98820.96
2017-12-13T19:58:06.663Z,98815.08
2017-12-13T20:00:34.375Z,98812.13
2017-12-13T20:03:02.876Z,98795.30
2017-12-13T20:05:30.944Z,98786.92
2017-12-13T20:07:58.518Z,98771.81
2017-12-13T20:10:26.065Z,98771.38
2017-12-13T20:12:53.659Z,98766.74
2017-12-13T20:15:21.252Z,98760.83
2017-12-13T20:17:50.934Z,98754.47
2017-12-13T20:20:18.499Z,98755.73
2017-12-13T20:22:46.018Z,98743.53
2017-12-13T20:25:13.901Z,98736.83
2017-12-13T20:27:41.481Z,98722.09
2017-12-13T20:30:09.015Z,98719.98
2017-12-13T20:32:36.533Z,98709.45
2017-12-13T20:35:04.116Z,98699.30
2017-12-13T20:37:31.660Z,98702.69
2017-12-13T20:39:59.179Z,98699.30
2017-12-13T20:42:26.671Z,98697.20
2017-12-13T20:47:27.902Z,98683.73
2017-12-13T20:49:55.488Z,98681.63
2017-12-13T20:52:23.035Z,98677.43
2017-12-13T20:54:50.559Z,98671.55
2017-12-13T20:57:18.589Z,98658.93
2017-12-13T20:59:46.175Z,98658.50
2017-12-13T21:02:13.759Z,98657.23
2017-12-13T21:04:41.284Z,98645.47
2017-12-13T21:07:08.782Z,98642.93
2017-12-13T21:09:36.294Z,98634.09
2017-12-13T21:12:03.807Z,98631.98
2017-12-13T21:14:35.178Z,98618.09
2017-12-13T21:17:02.657Z,98608.85
2017-12-13T21:19:30.112Z,98606.73
2017-12-13T21:21:57.564Z,98610.95
2017-12-13T21:24:26.369Z,98608.39
2017-12-13T21:26:53.901Z,98610.10
2017-12-13T21:29:21.493Z,98608.39
2017-12-13T21:31:48.961Z,98606.69
2017-12-13T21:34:16.572Z,98593.23
2017-12-13T21:36:44.239Z,98569.67
2017-12-13T21:39:11.710Z,98567.56
2017-12-13T21:41:39.167Z,98576.43
2017-12-13T21:44:06.664Z,98581.89
2017-12-13T21:46:34.417Z,98568.84
2017-12-13T21:49:01.919Z,98575.14
2017-12-13T21:51:29.575Z,98576.00
2017-12-13T21:53:57.081Z,98560.86
2017-12-13T21:56:24.528Z,98566.34
2017-12-13T21:58:52.009Z,98575.98
2017-12-13T22:01:19.697Z,98573.91
2017-12-13T22:03:47.156Z,98570.95
2017-12-13T22:06:14.659Z,98570.12
2017-12-13T22:08:42.184Z,98559.16
2017-12-13T22:11:09.748Z,98561.28
2017-12-13T22:13:37.234Z,98549.06
2017-12-13T22:16:05.562Z,98548.23
2017-12-13T22:18:33.205Z,98538.54
2017-12-13T22:21:02.130Z,98530.13
2017-12-13T22:23:30.318Z,98520.86
2017-12-13T22:25:57.852Z,98508.66
2017-12-13T22:28:25.351Z,98504.89
2017-12-13T22:30:52.841Z,98497.73
2017-12-13T22:33:20.434Z,98476.28
2017-12-13T22:35:48.217Z,98468.70
2017-12-13T22:38:17.116Z,98446.41
2017-12-13T22:40:44.584Z,98454.83
2017-12-13T22:43:12.168Z,98451.45
2017-12-13T22:45:39.675Z,98446.83
2017-12-13T22:48:07.783Z,98433.78
2017-12-13T22:50:35.257Z,98444.73
2017-12-13T22:53:02.726Z,98456.09
2017-12-13T22:55:30.268Z,98451.05
2017-12-13T22:57:57.816Z,98435.89
2017-12-13T23:00:37.001Z,98429.14
2017-12-13T23:03:04.479Z,98427.47
2017-12-13T23:05:32.011Z,98400.55
2017-12-13T23:07:59.520Z,98384.97
2017-12-13T23:10:27.018Z,98382.89
2017-12-13T23:12:54.508Z,98368.98
2017-12-13T23:15:21.996Z,98366.91
2017-12-13T23:17:49.534Z,98355.13
2017-12-13T23:20:17.093Z,98327.78
2017-12-13T23:22:44.571Z,98322.72
2017-12-13T23:25:12.036Z,98313.49
2017-12-13T23:27:39.524Z,98329.05
2017-12-13T23:30:07.067Z,98321.48
2017-12-13T23:32:34.607Z,98301.73
2017-12-13T23:35:02.077Z,98296.73
2017-12-13T23:37:29.588Z,98305.15
2017-12-13T23:39:57.048Z,98304.75
2017-12-13T23:42:24.569Z,98313.59
2017-12-13T23:47:25.758Z,98323.27
2017-12-13T23:49:53.297Z,98324.92
2017-12-13T23:52:20.759Z,98321.17
2017-12-13T23:54:48.244Z,98313.59
2017-12-13T23:57:16.062Z,98306.02
2017-12-13T23:59:43.538Z,98301.83
